Time;durP1;ratioP1;P1;durP2;ratioP2;P2;SDS_P1;SDS_P2;PMS_P1;PMS_P2;Temp;Humidity;BMP_temperature;BMP_pressure;BME280_temperature;BME280_humidity;BME280_pressure;Samples;Min_cycle;Max_cycle;Signal;HPM_P1;HPM_P2
2021/07/08 00:00:11;;;;;;;7.57;3.83;;;18.20;99.90;;;;;;5029625;28;20253;-64
2021/07/08 00:02:39;;;;;;;5.70;3.73;;;18.20;99.90;;;;;;5029240;28;20263;-63
2021/07/08 00:05:11;;;;;;;6.63;4.20;;;18.20;99.90;;;;;;5029407;28;20281;-63
2021/07/08 00:07:41;;;;;;;5.07;3.53;;;18.20;99.90;;;;;;5029173;28;20245;-63
2021/07/08 00:10:14;;;;;;;5.73;3.67;;;18.20;99.90;;;;;;5028692;28;20246;-63
2021/07/08 00:12:44;;;;;;;6.27;4.10;;;18.20;99.90;;;;;;5028643;28;20242;-64
2021/07/08 00:15:20;;;;;;;5.33;3.80;;;18.20;99.90;;;;;;5029679;28;20748;-64
2021/07/08 00:17:49;;;;;;;4.93;3.50;;;18.10;99.90;;;;;;5049542;28;20238;-63
2021/07/08 00:20:22;;;;;;;6.63;3.30;;;18.10;99.90;;;;;;5048896;28;20235;-63
2021/07/08 00:22:52;;;;;;;5.77;3.13;;;18.10;99.90;;;;;;5049245;28;20310;-64
2021/07/08 00:25:24;;;;;;;4.43;3.40;;;18.00;99.90;;;;;;5034537;28;20231;-63
2021/07/08 00:27:54;;;;;;;4.90;3.30;;;18.00;99.90;;;;;;5029486;28;20238;-63
2021/07/08 00:30:25;;;;;;;5.60;3.33;;;17.90;99.90;;;;;;5029002;28;20237;-63
2021/07/08 00:32:55;;;;;;;4.00;3.30;;;17.90;99.90;;;;;;5028751;28;20657;-63
2021/07/08 00:35:26;;;;;;;4.50;2.87;;;17.90;99.90;;;;;;5027909;28;20239;-63
2021/07/08 00:37:55;;;;;;;3.80;3.40;;;17.80;99.90;;;;;;5027724;28;20257;-63
2021/07/08 00:40:25;;;;;;;4.87;3.43;;;17.80;99.90;;;;;;5027640;28;20242;-63
2021/07/08 00:42:55;;;;;;;6.47;3.80;;;17.80;99.90;;;;;;5027664;28;20246;-62
2021/07/08 00:45:27;;;;;;;3.60;3.30;;;17.90;99.90;;;;;;5009357;28;20240;-62
2021/07/08 00:47:59;;;;;;;6.23;3.47;;;17.90;99.90;;;;;;5027646;28;20230;-63
2021/07/08 00:50:35;;;;;;;4.33;3.10;;;17.90;99.90;;;;;;5027010;28;20234;-63
2021/07/08 00:53:05;;;;;;;4.40;3.17;;;18.00;99.90;;;;;;5026874;28;20234;-63
2021/07/08 00:55:35;;;;;;;5.80;3.37;;;18.00;99.90;;;;;;5029728;28;20242;-63
2021/07/08 00:58:07;;;;;;;4.40;3.40;;;17.90;99.90;;;;;;5047457;28;20233;-63
2021/07/08 01:00:39;;;;;;;4.87;3.23;;;18.00;99.90;;;;;;5044037;28;20238;-64
2021/07/08 01:03:10;;;;;;;3.80;3.00;;;18.00;99.90;;;;;;5026809;28;20241;-64
2021/07/08 01:05:42;;;;;;;4.50;3.60;;;18.00;99.90;;;;;;5026774;28;20238;-63
2021/07/08 01:08:14;;;;;;;3.80;3.40;;;18.00;99.90;;;;;;5027053;28;20245;-63
2021/07/08 01:10:46;;;;;;;4.47;3.43;;;18.00;99.90;;;;;;5030337;28;21347;-63
2021/07/08 01:13:18;;;;;;;4.20;3.07;;;18.00;99.90;;;;;;5044915;28;20266;-64
2021/07/08 01:15:50;;;;;;;6.13;3.60;;;17.90;99.90;;;;;;5026514;28;20237;-62
2021/07/08 01:18:20;;;;;;;3.63;3.33;;;18.00;99.90;;;;;;5027199;28;20691;-64
2021/07/08 01:20:49;;;;;;;4.60;3.80;;;18.00;99.90;;;;;;5030822;28;20245;-63
2021/07/08 01:23:20;;;;;;;4.13;3.73;;;17.90;99.90;;;;;;5052745;28;20237;-63
2021/07/08 01:25:50;;;;;;;4.30;3.90;;;17.90;99.90;;;;;;5032154;28;20238;-63
2021/07/08 01:28:20;;;;;;;6.77;3.57;;;17.80;99.90;;;;;;5048153;28;20245;-63
2021/07/08 01:30:50;;;;;;;3.40;3.10;;;17.80;99.90;;;;;;5047489;28;20727;-63
2021/07/08 01:33:19;;;;;;;7.23;3.90;;;17.80;99.90;;;;;;5046111;28;20630;-64
2021/07/08 01:35:49;;;;;;;4.27;3.30;;;17.80;99.90;;;;;;5027323;28;20664;-63
2021/07/08 01:38:20;;;;;;;6.07;3.70;;;17.80;99.90;;;;;;5027841;28;20237;-63
2021/07/08 01:40:49;;;;;;;4.77;3.43;;;17.80;99.90;;;;;;5027617;28;20637;-64
2021/07/08 01:43:19;;;;;;;4.03;3.47;;;17.80;99.90;;;;;;5027903;28;20291;-64
2021/07/08 01:45:48;;;;;;;3.90;3.57;;;17.80;99.90;;;;;;5032343;28;20237;-63
2021/07/08 01:48:17;;;;;;;5.50;3.40;;;17.80;99.90;;;;;;5047604;28;20241;-64
2021/07/08 01:50:48;;;;;;;4.13;3.73;;;17.80;99.90;;;;;;5046866;28;20664;-64
2021/07/08 01:53:19;;;;;;;6.63;4.30;;;17.80;99.90;;;;;;5032811;28;20241;-63
2021/07/08 01:55:49;;;;;;;4.80;3.37;;;17.70;99.90;;;;;;5030804;28;20260;-63
2021/07/08 01:58:19;;;;;;;6.37;3.83;;;17.60;99.90;;;;;;5047557;28;20238;-64
2021/07/08 02:00:48;;;;;;;9.80;3.83;;;17.60;99.90;;;;;;5047151;28;20232;-63
2021/07/08 02:03:16;;;;;;;6.60;3.70;;;17.50;99.90;;;;;;5035863;28;20241;-63
2021/07/08 02:05:45;;;;;;;6.80;3.13;;;17.50;99.90;;;;;;5032315;28;20287;-64
2021/07/08 02:08:13;;;;;;;4.43;2.83;;;17.50;99.90;;;;;;5047491;28;20241;-63
2021/07/08 02:10:42;;;;;;;4.97;2.77;;;17.50;99.90;;;;;;5043073;28;20644;-63
2021/07/08 02:13:11;;;;;;;6.97;2.90;;;17.50;99.90;;;;;;5027243;28;20607;-63
2021/07/08 02:15:39;;;;;;;9.60;3.20;;;17.50;99.90;;;;;;5026790;28;20387;-63
2021/07/08 02:18:07;;;;;;;8.87;3.67;;;17.50;99.90;;;;;;5027479;28;20241;-63
2021/07/08 02:20:35;;;;;;;6.93;3.33;;;17.50;99.90;;;;;;5038051;28;20335;-64
2021/07/08 02:23:04;;;;;;;5.23;3.67;;;17.60;99.90;;;;;;5034348;28;20229;-63
2021/07/08 02:25:32;;;;;;;4.90;3.10;;;17.60;99.90;;;;;;5026989;28;20287;-64
2021/07/08 02:28:02;;;;;;;4.73;3.10;;;17.60;99.90;;;;;;5027390;28;20238;-62
2021/07/08 02:30:30;;;;;;;7.93;3.47;;;17.70;99.90;;;;;;5028583;28;20329;-63
2021/07/08 02:32:59;;;;;;;7.03;3.53;;;17.60;99.90;;;;;;5035269;28;20771;-64
2021/07/08 02:35:28;;;;;;;5.83;3.13;;;17.60;99.90;;;;;;5031968;28;20238;-63
2021/07/08 02:37:57;;;;;;;5.83;3.27;;;17.70;99.90;;;;;;5051565;28;20239;-63
2021/07/08 02:40:27;;;;;;;6.53;3.70;;;17.80;99.90;;;;;;5049410;28;20248;-63
2021/07/08 02:42:56;;;;;;;5.40;3.30;;;17.80;99.90;;;;;;5030627;28;20241;-63
2021/07/08 02:45:28;;;;;;;4.70;3.47;;;17.90;99.90;;;;;;5030897;28;20245;-61
2021/07/08 02:47:58;;;;;;;4.43;3.70;;;18.00;99.90;;;;;;5031437;28;20262;-64
2021/07/08 02:50:28;;;;;;;5.93;3.97;;;17.80;99.90;;;;;;5030167;28;20268;-63
2021/07/08 02:52:58;;;;;;;6.93;3.77;;;17.70;99.90;;;;;;5030458;28;20262;-63
2021/07/08 02:55:26;;;;;;;4.57;3.23;;;17.60;99.90;;;;;;5032045;28;20703;-62
2021/07/08 02:57:54;;;;;;;5.43;3.37;;;17.60;99.90;;;;;;5051180;28;20625;-63
2021/07/08 03:00:25;;;;;;;4.97;3.47;;;17.70;99.90;;;;;;5050121;28;20230;-63
2021/07/08 03:02:53;;;;;;;4.53;3.67;;;17.80;99.90;;;;;;5030651;28;20697;-63
2021/07/08 03:05:22;;;;;;;5.87;3.53;;;17.70;99.90;;;;;;5031882;28;20571;-63
2021/07/08 03:07:50;;;;;;;8.30;3.70;;;17.60;99.90;;;;;;5050344;28;20235;-63
2021/07/08 03:10:21;;;;;;;7.70;3.87;;;17.60;99.90;;;;;;5049991;28;20252;-63
2021/07/08 03:12:50;;;;;;;9.53;4.70;;;17.60;99.90;;;;;;5040236;28;20233;-64
2021/07/08 03:15:18;;;;;;;5.70;3.37;;;17.50;99.90;;;;;;5030278;28;20316;-64
2021/07/08 03:17:48;;;;;;;5.10;3.57;;;17.50;99.90;;;;;;5030244;28;20302;-63
2021/07/08 03:20:18;;;;;;;6.53;3.73;;;17.50;99.90;;;;;;5038435;28;20407;-64
2021/07/08 03:22:46;;;;;;;6.53;4.10;;;17.60;99.90;;;;;;5029578;28;20238;-63
2021/07/08 03:25:16;;;;;;;7.43;3.67;;;17.60;99.90;;;;;;5030150;28;20242;-63
2021/07/08 03:27:45;;;;;;;7.23;3.73;;;17.50;99.90;;;;;;5030136;28;20244;-64
2021/07/08 03:30:15;;;;;;;7.70;4.20;;;17.50;99.90;;;;;;5029960;28;20521;-63
2021/07/08 03:32:43;;;;;;;8.63;4.23;;;17.50;99.90;;;;;;5017619;28;20246;-63
2021/07/08 03:35:14;;;;;;;7.00;3.70;;;17.50;99.90;;;;;;5029775;28;20272;-63
2021/07/08 03:37:43;;;;;;;4.77;4.37;;;17.50;99.90;;;;;;5015672;28;20602;-64
2021/07/08 03:40:13;;;;;;;5.70;4.37;;;17.60;99.90;;;;;;5029677;28;20770;-63
2021/07/08 03:42:42;;;;;;;7.67;4.07;;;17.50;99.90;;;;;;5029111;28;20272;-63
2021/07/08 03:45:12;;;;;;;6.57;4.47;;;17.50;99.90;;;;;;5029362;28;20242;-63
2021/07/08 03:47:41;;;;;;;6.20;4.40;;;17.60;99.90;;;;;;5049314;28;20632;-63
2021/07/08 03:50:12;;;;;;;6.20;3.93;;;17.60;99.90;;;;;;5049451;28;20632;-63
2021/07/08 03:52:44;;;;;;;7.33;3.97;;;17.60;99.90;;;;;;5010771;28;20266;-63
2021/07/08 03:55:16;;;;;;;7.13;5.10;;;17.60;99.90;;;;;;5029908;28;20730;-63
2021/07/08 03:57:53;;;;;;;5.73;5.13;;;17.80;99.90;;;;;;5009316;28;20249;-63
2021/07/08 04:00:24;;;;;;;8.37;5.80;;;17.70;99.90;;;;;;5011352;28;20242;-63
2021/07/08 04:02:52;;;;;;;9.53;5.67;;;17.70;99.90;;;;;;5046113;28;20289;-63
2021/07/08 04:05:20;;;;;;;6.60;5.50;;;17.60;99.90;;;;;;5029350;28;20291;-63
2021/07/08 04:07:50;;;;;;;5.97;5.03;;;17.50;99.90;;;;;;5029392;28;20238;-64
2021/07/08 04:10:18;;;;;;;6.80;5.40;;;17.50;99.90;;;;;;5029095;28;20689;-63
2021/07/08 04:12:46;;;;;;;9.03;5.50;;;17.60;99.90;;;;;;5046807;28;20525;-63
2021/07/08 04:15:15;;;;;;;6.90;5.87;;;17.60;99.90;;;;;;5029122;28;20241;-63
2021/07/08 04:17:44;;;;;;;6.60;5.90;;;17.70;99.90;;;;;;5049067;28;20307;-63
2021/07/08 04:20:14;;;;;;;7.60;5.93;;;17.70;99.90;;;;;;5048892;28;20306;-63
2021/07/08 04:22:43;;;;;;;9.43;6.50;;;17.70;99.90;;;;;;5009677;28;20304;-63
2021/07/08 04:25:14;;;;;;;8.03;6.37;;;17.80;99.90;;;;;;5029333;28;20605;-63
2021/07/08 04:27:43;;;;;;;7.00;6.20;;;17.80;99.90;;;;;;5028867;28;20233;-63
2021/07/08 04:30:14;;;;;;;8.10;6.07;;;17.90;99.90;;;;;;5028953;28;20233;-63
2021/07/08 04:32:42;;;;;;;8.10;5.70;;;17.90;99.90;;;;;;5028389;28;20238;-63
2021/07/08 04:35:18;;;;;;;7.97;5.40;;;17.90;99.90;;;;;;5028597;28;20249;-63
2021/07/08 04:37:47;;;;;;;6.30;5.70;;;18.00;99.90;;;;;;5028882;28;20698;-64
2021/07/08 04:40:18;;;;;;;5.90;5.40;;;18.10;99.90;;;;;;5028148;28;20252;-63
2021/07/08 04:42:47;;;;;;;7.10;6.33;;;18.20;99.90;;;;;;5025186;28;20272;-63
2021/07/08 04:45:16;;;;;;;11.37;6.53;;;18.30;99.90;;;;;;5024519;28;20432;-63
2021/07/08 04:47:46;;;;;;;7.67;5.50;;;18.30;99.90;;;;;;5025901;28;20332;-64
2021/07/08 04:50:16;;;;;;;6.93;5.60;;;18.40;99.90;;;;;;5023917;28;20282;-64
2021/07/08 04:52:45;;;;;;;5.93;5.33;;;18.50;99.90;;;;;;5025513;28;20249;-63
2021/07/08 04:55:15;;;;;;;7.83;6.10;;;18.50;99.90;;;;;;5023898;28;20257;-64
2021/07/08 04:57:45;;;;;;;7.83;6.00;;;18.50;99.90;;;;;;5016369;28;20238;-64
2021/07/08 05:00:18;;;;;;;9.63;6.23;;;18.40;99.90;;;;;;5027660;28;20288;-64
2021/07/08 05:02:48;;;;;;;9.93;7.00;;;18.50;99.90;;;;;;5027512;28;20266;-63
2021/07/08 05:05:17;;;;;;;10.63;7.70;;;18.50;99.90;;;;;;5008339;28;20264;-64
2021/07/08 05:07:46;;;;;;;8.50;7.23;;;18.60;99.90;;;;;;5027753;28;20238;-63
2021/07/08 05:10:17;;;;;;;7.67;6.13;;;18.70;99.90;;;;;;5027549;28;20297;-64
2021/07/08 05:12:46;;;;;;;8.50;6.33;;;18.80;99.90;;;;;;5007977;28;20293;-64
2021/07/08 05:15:15;;;;;;;13.57;7.20;;;18.80;99.90;;;;;;5008744;28;20239;-63
2021/07/08 05:17:45;;;;;;;12.43;7.07;;;18.80;99.90;;;;;;5026693;28;20568;-64
2021/07/08 05:20:15;;;;;;;8.70;6.23;;;18.90;99.90;;;;;;5032191;28;20254;-64
2021/07/08 05:22:46;;;;;;;10.63;6.30;;;18.90;99.90;;;;;;5026777;28;20728;-64
2021/07/08 05:25:18;;;;;;;7.70;5.90;;;18.80;99.90;;;;;;5029387;28;20626;-65
2021/07/08 05:27:46;;;;;;;8.80;6.13;;;18.90;99.90;;;;;;5026689;28;20323;-64
2021/07/08 05:30:15;;;;;;;8.13;5.80;;;18.90;99.90;;;;;;5024507;28;20249;-65
2021/07/08 05:32:43;;;;;;;7.77;5.97;;;18.90;99.90;;;;;;5022510;28;20581;-64
2021/07/08 05:35:12;;;;;;;6.97;6.10;;;18.90;99.90;;;;;;5023543;28;20701;-65
2021/07/08 05:37:48;;;;;;;9.00;6.40;;;18.90;99.90;;;;;;5043087;28;20604;-65
2021/07/08 05:40:19;;;;;;;7.03;5.33;;;18.90;99.90;;;;;;5042731;28;20252;-64
2021/07/08 05:42:47;;;;;;;8.90;5.50;;;18.90;99.90;;;;;;5023195;28;20408;-63
2021/07/08 05:45:16;;;;;;;9.90;6.43;;;19.00;99.90;;;;;;5023527;28;20239;-64
2021/07/08 05:47:44;;;;;;;9.17;6.50;;;19.00;99.90;;;;;;5023294;28;20257;-63
2021/07/08 05:50:13;;;;;;;9.33;5.87;;;19.10;99.90;;;;;;5022979;28;20242;-63
2021/07/08 05:52:41;;;;;;;6.40;5.60;;;19.10;99.90;;;;;;5022828;28;20304;-63
2021/07/08 05:55:10;;;;;;;6.83;6.13;;;19.20;99.90;;;;;;5023252;28;20243;-63
2021/07/08 05:57:46;;;;;;;6.70;5.37;;;19.30;99.90;;;;;;5022666;28;20236;-63
2021/07/08 06:00:17;;;;;;;7.30;6.60;;;19.40;99.90;;;;;;5022960;28;20247;-63
2021/07/08 06:02:45;;;;;;;6.13;5.40;;;19.50;99.90;;;;;;5042170;28;20246;-63
2021/07/08 06:05:14;;;;;;;7.67;6.43;;;19.60;99.90;;;;;;5024440;28;20604;-63
2021/07/08 06:07:42;;;;;;;8.43;6.57;;;19.60;99.90;;;;;;5022592;28;20313;-64
2021/07/08 06:10:11;;;;;;;5.93;4.83;;;19.70;99.90;;;;;;5022404;28;20415;-64
2021/07/08 06:12:43;;;;;;;8.03;5.10;;;19.80;99.90;;;;;;5021921;28;20311;-63
2021/07/08 06:15:12;;;;;;;10.73;5.17;;;19.90;99.90;;;;;;5022783;28;20619;-63
2021/07/08 06:17:41;;;;;;;7.70;5.03;;;19.90;99.90;;;;;;5042568;28;20245;-64
2021/07/08 06:20:11;;;;;;;8.80;5.47;;;19.90;99.90;;;;;;5034755;28;20757;-63
2021/07/08 06:22:39;;;;;;;6.40;5.30;;;19.80;99.90;;;;;;5022008;28;20267;-63
2021/07/08 06:25:08;;;;;;;8.23;5.50;;;19.80;99.90;;;;;;5022764;28;20331;-63
2021/07/08 06:27:36;;;;;;;8.53;5.40;;;19.80;99.90;;;;;;5022268;28;20955;-63
2021/07/08 06:30:07;;;;;;;8.90;5.67;;;19.90;99.90;;;;;;5022793;28;20334;-63
2021/07/08 06:32:35;;;;;;;8.50;5.90;;;19.90;99.90;;;;;;5021842;28;20587;-63
2021/07/08 06:35:07;;;;;;;5.80;5.10;;;20.00;99.90;;;;;;5022727;28;20259;-64
2021/07/08 06:37:35;;;;;;;7.77;5.73;;;20.00;99.90;;;;;;5019515;28;20287;-63
2021/07/08 06:40:04;;;;;;;7.67;5.30;;;20.00;99.90;;;;;;5020834;28;20270;-63
2021/07/08 06:42:34;;;;;;;9.00;5.23;;;20.00;99.90;;;;;;5040596;28;20274;-64
2021/07/08 06:45:02;;;;;;;8.07;5.10;;;20.00;99.90;;;;;;5042797;28;20334;-64
2021/07/08 06:47:38;;;;;;;4.97;4.47;;;20.00;99.90;;;;;;5024037;28;20270;-63
2021/07/08 06:50:07;;;;;;;6.73;5.90;;;19.90;99.90;;;;;;5022844;28;20260;-63
2021/07/08 06:52:35;;;;;;;8.00;5.40;;;20.00;99.90;;;;;;5021614;28;20239;-63
2021/07/08 06:55:04;;;;;;;8.57;5.63;;;19.90;99.90;;;;;;5022745;28;20259;-64
2021/07/08 06:57:32;;;;;;;7.33;5.87;;;19.90;99.90;;;;;;5022122;28;20723;-63
2021/07/08 07:00:01;;;;;;;7.43;5.87;;;19.80;99.90;;;;;;5022376;28;20325;-62
2021/07/08 07:02:29;;;;;;;6.97;6.07;;;19.80;99.90;;;;;;5040081;28;20246;-63
2021/07/08 07:04:58;;;;;;;10.03;7.07;;;19.60;99.90;;;;;;5042507;28;20595;-65
2021/07/08 07:07:27;;;;;;;10.53;7.33;;;19.30;99.90;;;;;;5023941;28;20718;-64
2021/07/08 07:09:55;;;;;;;12.83;7.03;;;19.20;99.90;;;;;;5023132;28;20960;-64
2021/07/08 07:12:23;;;;;;;12.10;6.80;;;19.10;99.90;;;;;;5039297;28;20241;-65
2021/07/08 07:14:51;;;;;;;8.60;6.13;;;19.10;99.90;;;;;;5042586;28;20328;-64
2021/07/08 07:17:19;;;;;;;8.53;6.77;;;19.00;99.90;;;;;;5024709;28;20246;-65
2021/07/08 07:19:47;;;;;;;9.93;7.43;;;19.00;99.90;;;;;;5028588;28;20273;-65
2021/07/08 07:22:17;;;;;;;9.57;7.00;;;19.00;99.90;;;;;;5046609;28;20243;-64
2021/07/08 07:24:47;;;;;;;8.77;5.93;;;18.90;99.90;;;;;;5033576;28;20248;-64
2021/07/08 07:27:15;;;;;;;12.47;6.47;;;19.00;99.90;;;;;;5026916;28;20707;-64
2021/07/08 07:29:43;;;;;;;10.37;6.50;;;19.00;99.90;;;;;;5027105;28;20246;-64
2021/07/08 07:32:11;;;;;;;7.97;5.77;;;19.10;99.90;;;;;;5041765;28;20790;-64
2021/07/08 07:34:39;;;;;;;8.73;6.53;;;19.20;99.90;;;;;;5046641;28;20649;-63
2021/07/08 07:37:07;;;;;;;10.50;7.17;;;19.30;99.90;;;;;;5046693;28;20596;-64
2021/07/08 07:39:37;;;;;;;11.47;7.50;;;19.30;99.90;;;;;;5046620;28;20780;-64
2021/07/08 07:42:05;;;;;;;7.20;6.10;;;19.40;99.90;;;;;;5031142;28;20302;-64
2021/07/08 07:44:33;;;;;;;10.73;6.50;;;19.50;99.90;;;;;;5026901;28;20615;-63
2021/07/08 07:47:02;;;;;;;9.20;6.27;;;19.70;99.90;;;;;;5040986;28;20327;-64
2021/07/08 07:49:30;;;;;;;9.40;5.10;;;19.90;99.90;;;;;;5046611;28;20243;-64
2021/07/08 07:51:58;;;;;;;7.67;4.67;;;20.20;99.90;;;;;;5045886;28;20247;-63
2021/07/08 07:54:26;;;;;;;8.70;5.00;;;20.40;99.90;;;;;;5046615;28;20249;-63
2021/07/08 07:56:55;;;;;;;9.00;4.73;;;20.60;99.90;;;;;;5046780;28;20262;-64
2021/07/08 07:59:23;;;;;;;5.90;4.40;;;20.90;99.90;;;;;;5046680;28;20613;-64
2021/07/08 08:01:51;;;;;;;5.57;3.67;;;21.40;99.90;;;;;;5031773;28;20844;-64
2021/07/08 08:04:20;;;;;;;8.50;4.00;;;22.10;99.90;;;;;;5026231;28;20658;-64
2021/07/08 08:09:34;;;;;;;6.57;3.27;;;23.50;99.90;;;;;;5046497;28;20253;-64
2021/07/08 08:12:04;;;;;;;7.63;3.00;;;23.90;99.90;;;;;;5045819;28;20289;-64
2021/07/08 08:14:33;;;;;;;7.27;3.43;;;23.90;99.90;;;;;;5046701;28;20309;-63
2021/07/08 08:17:01;;;;;;;6.20;3.30;;;24.30;99.90;;;;;;5031807;28;20240;-64
2021/07/08 08:19:39;;;;;;;4.77;2.87;;;24.70;99.90;;;;;;5061369;28;20243;-64
2021/07/08 08:22:07;;;;;;;3.93;2.70;;;24.80;99.90;;;;;;5045544;28;20227;-64
2021/07/08 08:24:35;;;;;;;6.03;2.87;;;25.00;99.90;;;;;;5034294;28;20247;-64
2021/07/08 08:27:06;;;;;;;5.97;2.60;;;25.30;99.90;;;;;;5026206;28;20240;-64
2021/07/08 08:29:35;;;;;;;4.20;2.50;;;25.20;99.90;;;;;;5026645;28;20582;-64
2021/07/08 08:32:05;;;;;;;6.50;2.80;;;25.30;99.90;;;;;;5039464;28;20249;-64
2021/07/08 08:34:33;;;;;;;6.30;2.97;;;25.00;99.90;;;;;;5045943;28;20326;-64
2021/07/08 08:37:02;;;;;;;4.30;2.70;;;25.20;99.90;;;;;;5045467;28;20244;-64
2021/07/08 08:39:30;;;;;;;4.07;2.33;;;25.00;99.90;;;;;;5046147;28;20351;-64
2021/07/08 08:41:58;;;;;;;2.87;2.30;;;25.20;99.90;;;;;;5045412;28;20323;-64
2021/07/08 08:44:27;;;;;;;5.10;2.40;;;25.30;99.90;;;;;;5039390;28;20575;-64
2021/07/08 08:46:56;;;;;;;3.93;2.47;;;25.10;99.90;;;;;;5040019;28;20246;-64
2021/07/08 08:49:24;;;;;;;3.43;2.40;;;25.00;99.90;;;;;;5045862;28;20267;-64
2021/07/08 08:51:53;;;;;;;3.97;2.50;;;24.80;99.90;;;;;;5045046;28;20240;-65
2021/07/08 08:54:21;;;;;;;4.70;2.27;;;24.80;99.90;;;;;;5046128;28;20762;-64
2021/07/08 08:56:49;;;;;;;6.53;2.17;;;24.70;99.90;;;;;;5040010;28;20272;-64
2021/07/08 08:59:17;;;;;;;3.80;2.10;;;24.90;99.90;;;;;;5045968;28;20294;-64
2021/07/08 09:02:10;;;;;;;4.87;2.50;;;25.10;99.90;;;;;;5044810;28;20530;-64
2021/07/08 09:04:38;;;;;;;3.37;1.83;;;25.50;99.90;;;;;;5045454;28;20310;-64
2021/07/08 09:07:26;;;;;;;5.67;2.23;;;25.80;99.90;;;;;;5029982;28;20273;-64
2021/07/08 09:09:56;;;;;;;3.93;2.40;;;26.20;99.90;;;;;;5025543;28;20247;-65
2021/07/08 09:12:25;;;;;;;5.63;2.87;;;26.30;99.90;;;;;;5031264;28;20474;-64
2021/07/08 09:15:14;;;;;;;4.70;2.57;;;26.60;99.90;;;;;;5025860;28;20945;-64
2021/07/08 09:17:45;;;;;;;5.37;2.30;;;26.50;99.90;;;;;;5005397;28;20267;-64
2021/07/08 09:20:15;;;;;;;5.80;2.93;;;26.80;99.90;;;;;;5022286;28;20655;-65
2021/07/08 09:22:45;;;;;;;5.30;2.60;;;26.90;99.90;;;;;;5005057;28;20256;-65
2021/07/08 09:25:25;;;;;;;5.10;2.70;;;27.20;99.90;;;;;;5022804;28;20284;-65
2021/07/08 09:28:13;;;;;;;5.37;3.10;;;27.40;99.90;;;;;;5005950;28;20252;-65
2021/07/08 09:30:42;;;;;;;3.97;2.73;;;27.40;99.90;;;;;;5011712;28;20293;-65
2021/07/08 09:33:29;;;;;;;7.07;2.50;;;27.40;99.90;;;;;;5044664;28;20598;-65
2021/07/08 09:36:10;;;;;;;4.33;2.60;;;27.40;99.90;;;;;;5038877;28;20270;-64
2021/07/08 09:38:39;;;;;;;6.47;3.10;;;27.20;99.90;;;;;;5024881;28;20265;-65
2021/07/08 09:41:11;;;;;;;5.17;3.03;;;27.30;99.90;;;;;;5024553;28;20715;-65
2021/07/08 09:43:40;;;;;;;7.50;3.60;;;27.20;99.90;;;;;;5024461;28;20652;-65
2021/07/08 09:46:09;;;;;;;7.43;2.80;;;27.10;99.90;;;;;;5024953;28;20318;-64
2021/07/08 09:48:39;;;;;;;5.43;2.70;;;27.70;99.90;;;;;;5024881;28;20790;-65
2021/07/08 09:51:08;;;;;;;5.50;3.00;;;27.90;99.90;;;;;;5024794;28;20246;-65
2021/07/08 09:53:51;;;;;;;8.23;2.87;;;28.00;99.90;;;;;;5024729;28;20262;-64
2021/07/08 09:56:42;;;;;;;6.80;2.60;;;28.20;99.90;;;;;;5033306;28;20457;-64
2021/07/08 09:59:11;;;;;;;5.60;2.90;;;28.40;99.90;;;;;;5044755;28;20326;-64
2021/07/08 10:01:39;;;;;;;4.17;2.40;;;28.30;99.90;;;;;;5032860;28;20741;-64
2021/07/08 10:04:08;;;;;;;4.80;2.70;;;28.70;99.90;;;;;;5025050;28;20326;-64
2021/07/08 10:06:38;;;;;;;4.27;2.30;;;28.70;99.90;;;;;;5024302;28;20529;-64
2021/07/08 10:09:07;;;;;;;6.30;2.33;;;29.10;99.90;;;;;;5024476;28;20250;-64
2021/07/08 10:11:36;;;;;;;5.77;2.40;;;29.30;99.90;;;;;;5034830;28;20244;-65
2021/07/08 10:14:05;;;;;;;6.00;2.20;;;29.30;99.90;;;;;;5044635;28;20259;-64
2021/07/08 10:16:34;;;;;;;3.67;2.17;;;29.10;99.90;;;;;;5033680;28;20240;-64
2021/07/08 10:19:06;;;;;;;7.60;2.43;;;29.00;99.90;;;;;;5024354;28;20231;-65
2021/07/08 10:21:36;;;;;;;5.30;2.00;;;29.00;99.90;;;;;;5023568;28;20593;-65
2021/07/08 10:24:05;;;;;;;4.07;1.97;;;28.90;99.90;;;;;;5024668;28;20236;-64
2021/07/08 10:26:33;;;;;;;3.50;2.13;;;28.50;99.90;;;;;;5026017;28;20231;-64
2021/07/08 10:29:02;;;;;;;4.23;1.90;;;28.50;99.90;;;;;;5024087;28;20247;-65
2021/07/08 10:31:31;;;;;;;4.27;1.93;;;28.90;99.90;;;;;;5023563;28;20651;-64
2021/07/08 10:34:11;;;;;;;6.07;1.90;;;28.50;99.90;;;;;;5023980;28;20256;-65
2021/07/08 10:36:42;;;;;;;4.30;2.23;;;28.70;99.90;;;;;;5022238;28;20314;-64
2021/07/08 10:39:11;;;;;;;5.77;1.93;;;28.50;99.90;;;;;;5021634;28;20246;-64
2021/07/08 10:41:45;;;;;;;4.63;1.97;;;28.60;99.90;;;;;;5023754;28;20255;-64
2021/07/08 10:44:41;;;;;;;7.67;2.13;;;28.90;99.90;;;;;;5022227;28;20240;-65
2021/07/08 10:47:34;;;;;;;5.67;2.27;;;28.70;99.90;;;;;;5020773;28;20496;-65
2021/07/08 10:50:05;;;;;;;5.97;2.40;;;28.50;99.90;;;;;;5020040;28;20651;-64
2021/07/08 10:52:48;;;;;;;5.70;1.93;;;28.80;99.90;;;;;;5023058;28;20270;-64
2021/07/08 10:55:39;;;;;;;6.13;2.10;;;28.80;99.90;;;;;;5023693;28;20259;-64
2021/07/08 10:58:29;;;;;;;5.63;2.23;;;28.80;99.90;;;;;;5027615;28;20290;-65
2021/07/08 11:00:58;;;;;;;4.13;2.00;;;28.70;99.90;;;;;;5026127;28;20450;-64
2021/07/08 11:03:43;;;;;;;4.10;2.03;;;28.90;99.90;;;;;;5027554;28;20249;-64
2021/07/08 11:06:17;;;;;;;3.70;1.70;;;29.30;99.90;;;;;;5028511;28;20235;-64
2021/07/08 11:09:01;;;;;;;6.77;2.03;;;29.90;99.90;;;;;;5039909;28;20684;-64
2021/07/08 11:11:59;;;;;;;5.27;1.90;;;29.90;99.90;;;;;;5024998;28;20315;-64
2021/07/08 11:14:28;;;;;;;5.10;1.90;;;29.50;99.90;;;;;;5026428;28;20664;-64
2021/07/08 11:17:00;;;;;;;5.77;2.00;;;29.40;99.90;;;;;;5027160;28;20232;-64
2021/07/08 11:19:38;;;;;;;4.53;1.97;;;29.80;99.90;;;;;;5026303;28;20786;-64
2021/07/08 11:22:10;;;;;;;4.83;2.00;;;30.10;99.90;;;;;;5044091;28;20246;-65
2021/07/08 11:24:47;;;;;;;5.87;1.80;;;31.20;99.90;;;;;;5033691;28;20236;-65
2021/07/08 11:27:31;;;;;;;4.27;1.70;;;31.90;99.90;;;;;;5027018;28;20253;-65
2021/07/08 11:30:02;;;;;;;6.37;2.03;;;32.30;99.90;;;;;;5026596;28;20303;-65
2021/07/08 11:32:40;;;;;;;3.13;1.70;;;31.60;99.90;;;;;;5025651;28;20252;-65
2021/07/08 11:35:12;;;;;;;4.87;2.00;;;31.10;99.90;;;;;;5026281;28;20306;-65
2021/07/08 11:37:42;;;;;;;5.30;1.83;;;30.30;99.90;;;;;;5046285;28;20231;-65
2021/07/08 11:40:13;;;;;;;4.43;1.70;;;30.10;99.90;;;;;;5046701;28;20704;-65
2021/07/08 11:42:43;;;;;;;4.30;1.60;;;30.60;99.90;;;;;;5046114;28;20293;-65
2021/07/08 11:45:14;;;;;;;3.43;1.57;;;30.70;99.90;;;;;;5047032;28;20703;-65
2021/07/08 11:47:45;;;;;;;4.13;1.80;;;31.00;99.90;;;;;;5021525;28;20793;-65
2021/07/08 11:50:18;;;;;;;4.20;1.77;;;31.30;99.90;;;;;;5026484;28;20229;-65
2021/07/08 11:52:47;;;;;;;3.60;1.90;;;31.10;99.90;;;;;;5025231;28;20286;-65
2021/07/08 11:55:16;;;;;;;4.53;2.07;;;31.20;99.90;;;;;;5026767;28;20246;-65
2021/07/08 11:57:55;;;;;;;3.70;1.70;;;31.00;99.90;;;;;;5026285;28;20244;-65
2021/07/08 12:00:31;;;;;;;4.40;1.63;;;30.60;99.90;;;;;;5026265;28;20743;-65
2021/07/08 12:03:02;;;;;;;5.63;1.80;;;30.60;99.90;;;;;;5023656;28;20655;-65
2021/07/08 12:05:47;;;;;;;4.89;1.80;;;30.50;99.90;;;;;;4485672;28;10001492;-65
2021/07/08 12:08:26;;;;;;;4.57;1.97;;;30.60;99.90;;;;;;2415030;28;10002033;-65
2021/07/08 12:11:05;;;;;;;2.77;1.70;;;30.60;99.90;;;;;;5021807;28;20293;-65
2021/07/08 12:13:36;;;;;;;3.30;2.10;;;30.60;99.90;;;;;;5018605;28;20247;-65
2021/07/08 12:16:07;;;;;;;4.03;1.67;;;30.40;99.90;;;;;;5026587;28;20747;-65
2021/07/08 12:18:44;;;;;;;5.47;1.80;;;30.30;99.90;;;;;;5026063;28;20306;-65
2021/07/08 12:21:34;;;;;;;4.40;1.57;;;30.40;99.90;;;;;;5042409;28;20235;-65
2021/07/08 12:24:08;;;;;;;6.43;1.80;;;30.50;99.90;;;;;;5036611;28;20628;-65
2021/07/08 12:26:38;;;;;;;4.07;2.00;;;30.30;99.90;;;;;;5025517;28;20314;-65
2021/07/08 12:29:12;;;;;;;3.97;1.90;;;30.20;99.90;;;;;;5024459;28;20323;-65
2021/07/08 12:31:45;;;;;;;3.87;1.90;;;30.30;99.90;;;;;;5025565;28;20698;-65
2021/07/08 12:34:19;;;;;;;7.47;2.20;;;30.10;99.90;;;;;;5024499;28;20353;-65
2021/07/08 12:36:48;;;;;;;3.10;1.80;;;30.00;99.90;;;;;;5026522;28;20766;-65
2021/07/08 12:39:20;;;;;;;4.47;2.10;;;29.90;99.90;;;;;;5024693;28;20241;-65
2021/07/08 12:41:48;;;;;;;4.80;1.93;;;29.90;99.90;;;;;;5023959;28;20692;-65
2021/07/08 12:44:20;;;;;;;6.47;1.90;;;29.90;99.90;;;;;;5025016;28;20248;-65
2021/07/08 12:46:54;;;;;;;3.37;1.70;;;29.70;99.90;;;;;;5024892;28;20266;-65
2021/07/08 12:49:25;;;;;;;3.43;1.80;;;29.60;99.90;;;;;;5024866;28;20252;-65
2021/07/08 12:51:53;;;;;;;3.33;1.70;;;29.70;99.90;;;;;;5023731;28;20324;-65
2021/07/08 12:54:21;;;;;;;3.97;1.80;;;29.60;99.90;;;;;;5024674;28;20310;-64
2021/07/08 12:57:05;;;;;;;4.03;1.90;;;29.60;99.90;;;;;;5024299;28;20243;-65
2021/07/08 12:59:33;;;;;;;6.20;2.10;;;29.40;99.90;;;;;;5023471;28;20632;-65
2021/07/08 13:02:01;;;;;;;3.83;1.90;;;29.00;99.90;;;;;;5028096;28;20663;-65
2021/07/08 13:04:33;;;;;;;5.20;2.00;;;29.00;99.90;;;;;;5023966;28;20244;-65
2021/07/08 13:07:02;;;;;;;3.20;1.80;;;29.10;99.90;;;;;;5025427;28;20232;-65